sensor_id;sensor_type;location;lat;lon;timestamp;pressure;altitude;pressure_sealevel;temperature;humidity
50684;BME280;36654;45.042;38.994;2023-05-19T00:00:42;100637.31;;;18.35;45.48
50684;BME280;36654;45.042;38.994;2023-05-19T00:03:09;100633.78;;;18.32;45.53
50684;BME280;36654;45.042;38.994;2023-05-19T00:05:38;100666.88;;;18.33;45.70
50684;BME280;36654;45.042;38.994;2023-05-19T00:08:10;100662.38;;;18.33;45.82
50684;BME280;36654;45.042;38.994;2023-05-19T00:10:37;100650.00;;;18.26;45.90
50684;BME280;36654;45.042;38.994;2023-05-19T00:13:03;100655.28;;;18.29;45.86
50684;BME280;36654;45.042;38.994;2023-05-19T00:15:29;100659.88;;;18.24;46.02
50684;BME280;36654;45.042;38.994;2023-05-19T00:17:54;100657.34;;;18.18;45.89
50684;BME280;36654;45.042;38.994;2023-05-19T00:20:20;100667.16;;;18.19;46.27
50684;BME280;36654;45.042;38.994;2023-05-19T00:22:47;100653.19;;;18.03;46.33
50684;BME280;36654;45.042;38.994;2023-05-19T00:25:12;100662.13;;;18.04;46.58
50684;BME280;36654;45.042;38.994;2023-05-19T00:27:38;100657.78;;;17.97;46.70
50684;BME280;36654;45.042;38.994;2023-05-19T00:30:04;100653.47;;;17.89;46.80
50684;BME280;36654;45.042;38.994;2023-05-19T00:32:30;100663.34;;;17.87;47.05
50684;BME280;36654;45.042;38.994;2023-05-19T00:34:56;100656.38;;;17.77;47.36
50684;BME280;36654;45.042;38.994;2023-05-19T00:37:22;100668.84;;;17.78;47.65
50684;BME280;36654;45.042;38.994;2023-05-19T00:39:48;100635.50;;;17.46;47.47
50684;BME280;36654;45.042;38.994;2023-05-19T00:42:14;100687.78;;;17.69;47.72
50684;BME280;36654;45.042;38.994;2023-05-19T00:44:40;100680.75;;;17.65;47.83
50684;BME280;36654;45.042;38.994;2023-05-19T00:47:07;100660.47;;;17.49;48.23
50684;BME280;36654;45.042;38.994;2023-05-19T00:49:33;100629.56;;;17.29;48.01
50684;BME280;36654;45.042;38.994;2023-05-19T00:52:00;100693.44;;;17.54;48.20
50684;BME280;36654;45.042;38.994;2023-05-19T00:54:27;100686.47;;;17.45;48.46
50684;BME280;36654;45.042;38.994;2023-05-19T00:56:56;100692.75;;;17.42;48.83
50684;BME280;36654;45.042;38.994;2023-05-19T00:59:23;100684.81;;;17.38;48.90
50684;BME280;36654;45.042;38.994;2023-05-19T01:01:49;100685.78;;;17.32;49.08
50684;BME280;36654;45.042;38.994;2023-05-19T01:04:18;100709.06;;;17.30;49.20
50684;BME280;36654;45.042;38.994;2023-05-19T01:06:46;100691.31;;;17.23;49.60
50684;BME280;36654;45.042;38.994;2023-05-19T01:09:12;100699.41;;;17.20;49.84
50684;BME280;36654;45.042;38.994;2023-05-19T01:11:38;100699.47;;;17.15;49.81
50684;BME280;36654;45.042;38.994;2023-05-19T01:14:03;100700.44;;;17.10;50.08
50684;BME280;36654;45.042;38.994;2023-05-19T01:16:42;100689.84;;;17.03;50.24
50684;BME280;36654;45.042;38.994;2023-05-19T01:19:34;100695.25;;;16.99;50.66
50684;BME280;36654;45.042;38.994;2023-05-19T01:25:17;100702.59;;;16.86;51.00
50684;BME280;36654;45.042;38.994;2023-05-19T01:30:39;100692.09;;;16.71;51.82
50684;BME280;36654;45.042;38.994;2023-05-19T01:33:10;100693.03;;;16.68;51.74
50684;BME280;36654;45.042;38.994;2023-05-19T01:35:39;100650.56;;;16.42;52.18
50684;BME280;36654;45.042;38.994;2023-05-19T01:38:10;100699.38;;;16.63;52.09
50684;BME280;36654;45.042;38.994;2023-05-19T01:40:39;100617.19;;;16.06;52.49
50684;BME280;36654;45.042;38.994;2023-05-19T01:43:07;100700.34;;;16.55;52.41
50684;BME280;36654;45.042;38.994;2023-05-19T01:45:33;100699.47;;;16.53;52.61
50684;BME280;36654;45.042;38.994;2023-05-19T01:48:01;100688.22;;;16.28;52.38
50684;BME280;36654;45.042;38.994;2023-05-19T01:50:29;100712.91;;;16.49;52.62
50684;BME280;36654;45.042;38.994;2023-05-19T01:52:55;100690.69;;;16.42;52.81
50684;BME280;36654;45.042;38.994;2023-05-19T01:55:21;100723.63;;;16.50;52.49
50684;BME280;36654;45.042;38.994;2023-05-19T02:03:41;100711.06;;;16.52;52.44
50684;BME280;36654;45.042;38.994;2023-05-19T02:06:41;100706.41;;;16.67;52.08
50684;BME280;36654;45.042;38.994;2023-05-19T02:09:25;100700.00;;;16.81;51.64
50684;BME280;36654;45.042;38.994;2023-05-19T02:12:10;100710.41;;;17.01;51.13
50684;BME280;36654;45.042;38.994;2023-05-19T02:17:17;100714.03;;;17.52;49.69
50684;BME280;36654;45.042;38.994;2023-05-19T02:19:43;100713.38;;;17.88;49.06
50684;BME280;36654;45.042;38.994;2023-05-19T02:22:09;100710.06;;;18.21;47.84
50684;BME280;36654;45.042;38.994;2023-05-19T02:24:34;100706.75;;;18.50;46.71
50684;BME280;36654;45.042;38.994;2023-05-19T02:27:02;100699.88;;;18.79;46.11
50684;BME280;36654;45.042;38.994;2023-05-19T02:29:28;100694.69;;;19.08;45.37
50684;BME280;36654;45.042;38.994;2023-05-19T02:31:53;100697.31;;;19.47;44.74
50684;BME280;36654;45.042;38.994;2023-05-19T02:34:19;100701.00;;;19.77;43.62
50684;BME280;36654;45.042;38.994;2023-05-19T02:36:45;100692.44;;;19.94;43.26
50684;BME280;36654;45.042;38.994;2023-05-19T02:39:14;100701.50;;;20.23;42.40
50684;BME280;36654;45.042;38.994;2023-05-19T02:41:40;100735.88;;;20.44;42.08
50684;BME280;36654;45.042;38.994;2023-05-19T02:44:05;100720.94;;;20.64;41.85
50684;BME280;36654;45.042;38.994;2023-05-19T02:46:32;100710.28;;;20.61;41.46
50684;BME280;36654;45.042;38.994;2023-05-19T02:48:58;100703.13;;;20.60;41.29
50684;BME280;36654;45.042;38.994;2023-05-19T02:51:23;100716.63;;;20.58;41.57
50684;BME280;36654;45.042;38.994;2023-05-19T02:53:49;100702.25;;;20.28;41.83
50684;BME280;36654;45.042;38.994;2023-05-19T02:56:15;100726.41;;;19.98;42.42
50684;BME280;36654;45.042;38.994;2023-05-19T02:58:41;100735.84;;;19.82;43.27
50684;BME280;36654;45.042;38.994;2023-05-19T03:01:08;100736.19;;;19.67;43.54
50684;BME280;36654;45.042;38.994;2023-05-19T03:03:34;100725.53;;;19.64;43.40
50684;BME280;36654;45.042;38.994;2023-05-19T03:05:59;100736.38;;;19.60;43.83
50684;BME280;36654;45.042;38.994;2023-05-19T03:08:26;100730.91;;;19.64;43.56
50684;BME280;36654;45.042;38.994;2023-05-19T03:10:52;100686.91;;;19.66;43.56
50684;BME280;36654;45.042;38.994;2023-05-19T03:13:17;100723.38;;;20.11;42.95
50684;BME280;36654;45.042;38.994;2023-05-19T03:15:43;100730.75;;;20.35;42.05
50684;BME280;36654;45.042;38.994;2023-05-19T03:18:09;100727.47;;;20.57;42.09
50684;BME280;36654;45.042;38.994;2023-05-19T03:20:36;100751.25;;;20.72;41.66
50684;BME280;36654;45.042;38.994;2023-05-19T03:23:02;100729.38;;;20.81;40.84
50684;BME280;36654;45.042;38.994;2023-05-19T03:25:28;100730.19;;;20.85;40.91
50684;BME280;36654;45.042;38.994;2023-05-19T03:27:54;100730.84;;;20.92;40.62
50684;BME280;36654;45.042;38.994;2023-05-19T03:30:20;100721.13;;;20.87;40.44
50684;BME280;36654;45.042;38.994;2023-05-19T03:32:46;100733.16;;;21.04;40.65
50684;BME280;36654;45.042;38.994;2023-05-19T03:35:12;100693.91;;;20.97;40.54
50684;BME280;36654;45.042;38.994;2023-05-19T03:37:37;100742.13;;;21.32;39.86
50684;BME280;36654;45.042;38.994;2023-05-19T03:40:03;100745.06;;;21.53;39.73
50684;BME280;36654;45.042;38.994;2023-05-19T03:42:30;100744.44;;;21.45;39.58
50684;BME280;36654;45.042;38.994;2023-05-19T03:44:55;100743.47;;;21.47;40.01
50684;BME280;36654;45.042;38.994;2023-05-19T03:47:21;100755.41;;;21.39;39.57
50684;BME280;36654;45.042;38.994;2023-05-19T03:49:47;100760.06;;;21.33;39.92
50684;BME280;36654;45.042;38.994;2023-05-19T03:52:12;100692.56;;;21.10;39.89
50684;BME280;36654;45.042;38.994;2023-05-19T03:54:38;100734.94;;;21.31;40.07
50684;BME280;36654;45.042;38.994;2023-05-19T03:57:04;100754.41;;;21.43;39.81
50684;BME280;36654;45.042;38.994;2023-05-19T03:59:30;100761.25;;;21.53;39.94
50684;BME280;36654;45.042;38.994;2023-05-19T04:01:56;100725.50;;;21.46;39.64
50684;BME280;36654;45.042;38.994;2023-05-19T04:04:22;100766.72;;;21.76;39.25
50684;BME280;36654;45.042;38.994;2023-05-19T04:06:48;100757.09;;;21.69;39.35
50684;BME280;36654;45.042;38.994;2023-05-19T04:09:14;100773.06;;;21.75;39.46
50684;BME280;36654;45.042;38.994;2023-05-19T04:11:41;100770.47;;;21.72;38.99
50684;BME280;36654;45.042;38.994;2023-05-19T04:14:07;100773.06;;;21.75;39.37
50684;BME280;36654;45.042;38.994;2023-05-19T04:16:33;100785.81;;;21.97;39.12
50684;BME280;36654;45.042;38.994;2023-05-19T04:18:59;100776.06;;;21.93;39.02
50684;BME280;36654;45.042;38.994;2023-05-19T04:21:25;100770.53;;;21.96;39.05
50684;BME280;36654;45.042;38.994;2023-05-19T04:23:50;100769.47;;;22.02;39.05
50684;BME280;36654;45.042;38.994;2023-05-19T04:26:17;100782.31;;;22.20;38.96
50684;BME280;36654;45.042;38.994;2023-05-19T04:28:43;100767.25;;;22.38;38.80
50684;BME280;36654;45.042;38.994;2023-05-19T04:31:09;100787.94;;;22.63;38.34
50684;BME280;36654;45.042;38.994;2023-05-19T04:33:37;100796.41;;;22.77;37.66
50684;BME280;36654;45.042;38.994;2023-05-19T04:36:06;100764.00;;;22.77;37.73
50684;BME280;36654;45.042;38.994;2023-05-19T04:38:35;100784.44;;;23.08;37.23
50684;BME280;36654;45.042;38.994;2023-05-19T04:41:04;100782.72;;;23.05;36.82
50684;BME280;36654;45.042;38.994;2023-05-19T04:43:30;100778.75;;;23.14;36.74
50684;BME280;36654;45.042;38.994;2023-05-19T04:45:56;100779.91;;;23.30;36.51
50684;BME280;36654;45.042;38.994;2023-05-19T04:48:22;100784.66;;;23.67;36.17
50684;BME280;36654;45.042;38.994;2023-05-19T04:50:49;100797.78;;;23.99;35.55
50684;BME280;36654;45.042;38.994;2023-05-19T04:53:16;100787.22;;;24.33;34.95
50684;BME280;36654;45.042;38.994;2023-05-19T04:55:42;100786.69;;;24.46;34.31
50684;BME280;36654;45.042;38.994;2023-05-19T04:58:08;100789.59;;;24.81;34.10
50684;BME280;36654;45.042;38.994;2023-05-19T05:00:36;100780.38;;;25.04;33.46
50684;BME280;36654;45.042;38.994;2023-05-19T05:03:01;100781.56;;;25.17;33.41
50684;BME280;36654;45.042;38.994;2023-05-19T05:05:30;100787.25;;;25.30;33.08
50684;BME280;36654;45.042;38.994;2023-05-19T05:07:56;100785.06;;;25.55;32.70
50684;BME280;36654;45.042;38.994;2023-05-19T05:10:23;100779.47;;;25.58;32.37
50684;BME280;36654;45.042;38.994;2023-05-19T05:12:49;100781.75;;;25.68;32.19
50684;BME280;36654;45.042;38.994;2023-05-19T05:15:14;100794.06;;;25.75;32.19
50684;BME280;36654;45.042;38.994;2023-05-19T05:17:40;100785.91;;;25.75;31.58
50684;BME280;36654;45.042;38.994;2023-05-19T05:20:08;100748.69;;;25.77;31.48
50684;BME280;36654;45.042;38.994;2023-05-19T05:22:34;100789.63;;;26.26;31.37
50684;BME280;36654;45.042;38.994;2023-05-19T05:25:01;100796.22;;;26.38;31.28
50684;BME280;36654;45.042;38.994;2023-05-19T05:27:27;100807.50;;;26.30;30.50
50684;BME280;36654;45.042;38.994;2023-05-19T05:29:52;100801.13;;;26.14;30.69
50684;BME280;36654;45.042;38.994;2023-05-19T05:32:18;100804.47;;;26.19;30.36
50684;BME280;36654;45.042;38.994;2023-05-19T05:34:44;100756.22;;;25.72;30.42
50684;BME280;36654;45.042;38.994;2023-05-19T05:37:10;100811.91;;;25.98;30.47
50684;BME280;36654;45.042;38.994;2023-05-19T05:39:36;100793.00;;;25.96;30.11
50684;BME280;36654;45.042;38.994;2023-05-19T05:42:04;100804.97;;;26.10;30.27
50684;BME280;36654;45.042;38.994;2023-05-19T05:44:29;100807.91;;;26.05;30.59
50684;BME280;36654;45.042;38.994;2023-05-19T05:46:55;100811.44;;;26.07;30.44
50684;BME280;36654;45.042;38.994;2023-05-19T05:49:21;100834.38;;;26.01;30.62
50684;BME280;36654;45.042;38.994;2023-05-19T05:51:47;100813.75;;;25.97;30.48
50684;BME280;36654;45.042;38.994;2023-05-19T05:54:15;100830.38;;;26.09;30.34
50684;BME280;36654;45.042;38.994;2023-05-19T05:56:43;100768.97;;;25.70;30.56
50684;BME280;36654;45.042;38.994;2023-05-19T05:59:09;100764.34;;;25.72;30.20
50684;BME280;36654;45.042;38.994;2023-05-19T06:01:34;100765.75;;;25.44;31.09
50684;BME280;36654;45.042;38.994;2023-05-19T06:04:00;100816.09;;;25.69;31.12
50684;BME280;36654;45.042;38.994;2023-05-19T06:06:26;100819.44;;;25.74;30.57
50684;BME280;36654;45.042;38.994;2023-05-19T06:08:52;100766.81;;;25.23;31.29
50684;BME280;36654;45.042;38.994;2023-05-19T06:11:18;100817.44;;;25.03;31.71
50684;BME280;36654;45.042;38.994;2023-05-19T06:13:43;100820.72;;;24.72;32.94
50684;BME280;36654;45.042;38.994;2023-05-19T06:16:09;100822.84;;;24.45;33.10
50684;BME280;36654;45.042;38.994;2023-05-19T06:18:35;100792.94;;;24.07;33.83
50684;BME280;36654;45.042;38.994;2023-05-19T06:21:00;100825.28;;;24.30;33.81
50684;BME280;36654;45.042;38.994;2023-05-19T06:23:28;100814.13;;;24.18;33.81
50684;BME280;36654;45.042;38.994;2023-05-19T06:25:54;100810.91;;;24.28;33.91
50684;BME280;36654;45.042;38.994;2023-05-19T06:28:21;100831.03;;;24.23;33.65
50684;BME280;36654;45.042;38.994;2023-05-19T06:30:46;100841.25;;;24.16;34.04
50684;BME280;36654;45.042;38.994;2023-05-19T06:33:12;100819.72;;;24.13;34.59
50684;BME280;36654;45.042;38.994;2023-05-19T06:35:38;100818.56;;;24.19;34.37
50684;BME280;36654;45.042;38.994;2023-05-19T06:38:03;100811.88;;;24.27;34.06
50684;BME280;36654;45.042;38.994;2023-05-19T06:40:29;100818.72;;;24.16;33.78
50684;BME280;36654;45.042;38.994;2023-05-19T06:42:55;100861.69;;;24.03;33.62
50684;BME280;36654;45.042;38.994;2023-05-19T06:45:20;100806.19;;;23.93;34.24
50684;BME280;36654;45.042;38.994;2023-05-19T06:47:47;100820.41;;;23.98;34.35
50684;BME280;36654;45.042;38.994;2023-05-19T06:50:13;100817.16;;;23.89;34.07
50684;BME280;36654;45.042;38.994;2023-05-19T06:52:38;100856.78;;;23.90;33.85
50684;BME280;36654;45.042;38.994;2023-05-19T06:55:05;100815.13;;;23.95;34.19
50684;BME280;36654;45.042;38.994;2023-05-19T06:57:30;100821.16;;;24.01;33.92
50684;BME280;36654;45.042;38.994;2023-05-19T06:59:56;100813.81;;;24.03;34.42
50684;BME280;36654;45.042;38.994;2023-05-19T07:02:22;100796.56;;;24.06;34.51
50684;BME280;36654;45.042;38.994;2023-05-19T07:04:47;100805.78;;;24.02;33.91
50684;BME280;36654;45.042;38.994;2023-05-19T07:07:13;100761.66;;;23.79;34.44
50684;BME280;36654;45.042;38.994;2023-05-19T07:09:38;100800.63;;;23.96;34.81
50684;BME280;36654;45.042;38.994;2023-05-19T07:12:05;100821.75;;;24.08;35.13
50684;BME280;36654;45.042;38.994;2023-05-19T07:14:30;100828.53;;;23.98;34.75
50684;BME280;36654;45.042;38.994;2023-05-19T07:16:56;100829.19;;;24.03;34.64
50684;BME280;36654;45.042;38.994;2023-05-19T07:19:22;100819.59;;;24.16;33.84
50684;BME280;36654;45.042;38.994;2023-05-19T07:21:48;100842.75;;;24.23;34.15
50684;BME280;36654;45.042;38.994;2023-05-19T07:24:14;100827.59;;;24.19;34.03
50684;BME280;36654;45.042;38.994;2023-05-19T07:26:40;100832.19;;;24.17;34.91
50684;BME280;36654;45.042;38.994;2023-05-19T07:29:06;100844.38;;;24.27;35.05
50684;BME280;36654;45.042;38.994;2023-05-19T07:31:32;100824.47;;;24.28;33.92
50684;BME280;36654;45.042;38.994;2023-05-19T07:33:58;100774.13;;;24.04;33.96
50684;BME280;36654;45.042;38.994;2023-05-19T07:36:24;100835.44;;;24.25;33.37
50684;BME280;36654;45.042;38.994;2023-05-19T07:38:50;100832.53;;;24.30;33.96
50684;BME280;36654;45.042;38.994;2023-05-19T07:41:15;100806.94;;;24.37;33.91
50684;BME280;36654;45.042;38.994;2023-05-19T07:43:41;100827.31;;;24.46;33.83
50684;BME280;36654;45.042;38.994;2023-05-19T07:46:07;100813.03;;;24.42;33.19
50684;BME280;36654;45.042;38.994;2023-05-19T07:48:33;100760.44;;;24.07;33.27
50684;BME280;36654;45.042;38.994;2023-05-19T07:50:58;100803.47;;;24.33;33.76
50684;BME280;36654;45.042;38.994;2023-05-19T07:53:24;100814.44;;;24.30;33.33
50684;BME280;36654;45.042;38.994;2023-05-19T07:55:50;100819.72;;;24.33;33.32
50684;BME280;36654;45.042;38.994;2023-05-19T07:58:16;100815.41;;;24.29;33.34
50684;BME280;36654;45.042;38.994;2023-05-19T08:00:41;100823.94;;;24.20;33.07
50684;BME280;36654;45.042;38.994;2023-05-19T08:03:11;100802.53;;;24.35;33.03
50684;BME280;36654;45.042;38.994;2023-05-19T08:05:37;100813.66;;;24.49;33.00
50684;BME280;36654;45.042;38.994;2023-05-19T08:08:03;100818.66;;;24.58;32.24
50684;BME280;36654;45.042;38.994;2023-05-19T08:10:29;100815.53;;;24.67;32.29
50684;BME280;36654;45.042;38.994;2023-05-19T08:12:54;100802.03;;;24.66;31.79
50684;BME280;36654;45.042;38.994;2023-05-19T08:15:20;100799.09;;;24.70;32.19
50684;BME280;36654;45.042;38.994;2023-05-19T08:17:46;100803.97;;;24.64;31.71
50684;BME280;36654;45.042;38.994;2023-05-19T08:20:12;100864.00;;;24.73;31.27
50684;BME280;36654;45.042;38.994;2023-05-19T08:22:38;100848.72;;;24.72;31.18
50684;BME280;36654;45.042;38.994;2023-05-19T08:25:04;100796.22;;;24.94;31.46
50684;BME280;36654;45.042;38.994;2023-05-19T08:27:31;100794.03;;;25.21;31.35
50684;BME280;36654;45.042;38.994;2023-05-19T08:29:57;100767.03;;;25.37;31.09
50684;BME280;36654;45.042;38.994;2023-05-19T08:32:23;100737.34;;;25.51;31.17
50684;BME280;36654;45.042;38.994;2023-05-19T08:34:48;100799.19;;;25.81;30.50
50684;BME280;36654;45.042;38.994;2023-05-19T08:37:14;100778.09;;;25.69;30.93
50684;BME280;36654;45.042;38.994;2023-05-19T08:39:40;100775.59;;;25.64;30.93
50684;BME280;36654;45.042;38.994;2023-05-19T08:42:06;100758.75;;;25.57;30.88
50684;BME280;36654;45.042;38.994;2023-05-19T08:44:34;100761.81;;;25.69;31.54
50684;BME280;36654;45.042;38.994;2023-05-19T08:47:02;100763.38;;;25.73;30.89
50684;BME280;36654;45.042;38.994;2023-05-19T08:49:44;100778.38;;;25.63;30.47
50684;BME280;36654;45.042;38.994;2023-05-19T08:52:33;100757.94;;;25.55;30.40
50684;BME280;36654;45.042;38.994;2023-05-19T08:55:04;100753.78;;;25.48;31.27
50684;BME280;36654;45.042;38.994;2023-05-19T08:57:35;100754.19;;;25.58;31.39
50684;BME280;36654;45.042;38.994;2023-05-19T09:00:02;100755.56;;;25.49;30.67
50684;BME280;36654;45.042;38.994;2023-05-19T09:02:34;100725.66;;;25.13;30.80
50684;BME280;36654;45.042;38.994;2023-05-19T09:05:03;100767.28;;;25.50;31.67
50684;BME280;36654;45.042;38.994;2023-05-19T09:07:30;100747.25;;;25.52;30.76
50684;BME280;36654;45.042;38.994;2023-05-19T09:09:59;100760.81;;;25.52;31.32
50684;BME280;36654;45.042;38.994;2023-05-19T09:12:25;100762.56;;;25.53;31.57
50684;BME280;36654;45.042;38.994;2023-05-19T09:14:51;100783.88;;;25.44;30.94
50684;BME280;36654;45.042;38.994;2023-05-19T09:17:17;100782.25;;;25.39;31.47
50684;BME280;36654;45.042;38.994;2023-05-19T09:19:46;100779.56;;;25.39;31.69
50684;BME280;36654;45.042;38.994;2023-05-19T09:22:17;100783.84;;;25.26;31.37
50684;BME280;36654;45.042;38.994;2023-05-19T09:24:43;100777.56;;;25.05;32.07
50684;BME280;36654;45.042;38.994;2023-05-19T09:27:13;100791.66;;;24.94;32.46
50684;BME280;36654;45.042;38.994;2023-05-19T09:29:39;100789.81;;;24.95;32.69
50684;BME280;36654;45.042;38.994;2023-05-19T09:32:05;100723.38;;;24.67;32.51
50684;BME280;36654;45.042;38.994;2023-05-19T09:34:31;100772.91;;;24.90;32.47
50684;BME280;36654;45.042;38.994;2023-05-19T09:36:57;100754.81;;;24.71;32.58
50684;BME280;36654;45.042;38.994;2023-05-19T09:39:24;100792.69;;;24.92;32.30
50684;BME280;36654;45.042;38.994;2023-05-19T09:41:54;100779.13;;;24.92;32.75
50684;BME280;36654;45.042;38.994;2023-05-19T09:46:47;100803.59;;;25.09;32.19
50684;BME280;36654;45.042;38.994;2023-05-19T09:49:18;100803.06;;;25.22;32.07
50684;BME280;36654;45.042;38.994;2023-05-19T09:51:44;100768.91;;;25.35;32.29
50684;BME280;36654;45.042;38.994;2023-05-19T09:54:14;100790.25;;;25.43;32.34
50684;BME280;36654;45.042;38.994;2023-05-19T09:56:40;100833.75;;;25.41;31.85
50684;BME280;36654;45.042;38.994;2023-05-19T09:59:06;100792.25;;;25.39;31.86
50684;BME280;36654;45.042;38.994;2023-05-19T10:01:32;100790.19;;;25.44;31.78
50684;BME280;36654;45.042;38.994;2023-05-19T10:03:59;100773.75;;;25.47;31.32
50684;BME280;36654;45.042;38.994;2023-05-19T10:06:25;100768.56;;;25.60;31.19
50684;BME280;36654;45.042;38.994;2023-05-19T10:08:51;100766.22;;;25.35;31.45
50684;BME280;36654;45.042;38.994;2023-05-19T10:11:17;100766.94;;;25.56;31.36
50684;BME280;36654;45.042;38.994;2023-05-19T10:13:44;100767.91;;;25.55;31.71
50684;BME280;36654;45.042;38.994;2023-05-19T10:16:12;100775.19;;;25.54;31.27
50684;BME280;36654;45.042;38.994;2023-05-19T10:18:40;100752.84;;;25.49;31.52
50684;BME280;36654;45.042;38.994;2023-05-19T10:21:07;100776.31;;;25.68;31.55
50684;BME280;36654;45.042;38.994;2023-05-19T10:23:33;100765.69;;;25.80;30.31
50684;BME280;36654;45.042;38.994;2023-05-19T10:26:00;100754.63;;;26.02;31.05
50684;BME280;36654;45.042;38.994;2023-05-19T10:28:37;100747.28;;;26.04;30.15
50684;BME280;36654;45.042;38.994;2023-05-19T10:31:06;100770.63;;;26.09;30.55
50684;BME280;36654;45.042;38.994;2023-05-19T10:34:44;100750.25;;;26.00;30.73
50684;BME280;36654;45.042;38.994;2023-05-19T10:37:01;100758.63;;;25.95;30.25
50684;BME280;36654;45.042;38.994;2023-05-19T10:39:33;100778.44;;;25.97;30.50
50684;BME280;36654;45.042;38.994;2023-05-19T10:42:24;100768.31;;;26.01;30.66
50684;BME280;36654;45.042;38.994;2023-05-19T10:47:23;100767.53;;;25.80;30.40
50684;BME280;36654;45.042;38.994;2023-05-19T10:49:51;100758.13;;;25.70;30.56
50684;BME280;36654;45.042;38.994;2023-05-19T10:52:19;100816.38;;;25.63;29.70
50684;BME280;36654;45.042;38.994;2023-05-19T10:54:45;100775.13;;;25.73;30.49
50684;BME280;36654;45.042;38.994;2023-05-19T10:57:19;100779.06;;;25.85;29.88
50684;BME280;36654;45.042;38.994;2023-05-19T10:59:51;100772.75;;;25.85;30.00
50684;BME280;36654;45.042;38.994;2023-05-19T11:02:38;100735.28;;;25.56;30.18
50684;BME280;36654;45.042;38.994;2023-05-19T11:05:13;100774.34;;;25.71;30.57
50684;BME280;36654;45.042;38.994;2023-05-19T11:07:53;100762.25;;;25.59;30.55
50684;BME280;36654;45.042;38.994;2023-05-19T11:10:23;100764.50;;;25.51;30.65
50684;BME280;36654;45.042;38.994;2023-05-19T11:12:50;100761.69;;;25.53;30.76
50684;BME280;36654;45.042;38.994;2023-05-19T11:15:16;100770.22;;;25.45;30.71
50684;BME280;36654;45.042;38.994;2023-05-19T11:17:47;100749.47;;;25.44;31.05
50684;BME280;36654;45.042;38.994;2023-05-19T11:20:25;100773.41;;;25.53;32.36
50684;BME280;36654;45.042;38.994;2023-05-19T11:23:13;100750.13;;;25.49;32.46
50684;BME280;36654;45.042;38.994;2023-05-19T11:25:47;100754.13;;;25.59;32.36
50684;BME280;36654;45.042;38.994;2023-05-19T11:28:16;100785.44;;;25.67;31.93
50684;BME280;36654;45.042;38.994;2023-05-19T11:30:50;100730.66;;;25.41;32.12
50684;BME280;36654;45.042;38.994;2023-05-19T11:33:21;100764.16;;;25.57;32.13
50684;BME280;36654;45.042;38.994;2023-05-19T11:35:52;100755.41;;;25.70;32.20
50684;BME280;36654;45.042;38.994;2023-05-19T11:38:19;100764.13;;;25.76;32.33
50684;BME280;36654;45.042;38.994;2023-05-19T11:40:48;100762.03;;;25.81;32.07
50684;BME280;36654;45.042;38.994;2023-05-19T11:43:16;100757.41;;;25.66;31.92
50684;BME280;36654;45.042;38.994;2023-05-19T11:45:42;100765.16;;;25.74;30.72
50684;BME280;36654;45.042;38.994;2023-05-19T11:48:12;100769.56;;;25.76;31.17
50684;BME280;36654;45.042;38.994;2023-05-19T11:50:40;100768.28;;;25.66;31.00
50684;BME280;36654;45.042;38.994;2023-05-19T11:53:10;100753.78;;;25.66;31.21
50684;BME280;36654;45.042;38.994;2023-05-19T11:55:42;100776.00;;;25.56;31.83
50684;BME280;36654;45.042;38.994;2023-05-19T11:58:09;100777.09;;;25.52;32.06
50684;BME280;36654;45.042;38.994;2023-05-19T12:00:38;100766.06;;;25.55;32.23
50684;BME280;36654;45.042;38.994;2023-05-19T12:03:04;100755.63;;;25.48;32.33
50684;BME280;36654;45.042;38.994;2023-05-19T12:05:30;100774.72;;;25.64;31.89
50684;BME280;36654;45.042;38.994;2023-05-19T12:07:56;100774.97;;;25.59;32.27
50684;BME280;36654;45.042;38.994;2023-05-19T12:10:23;100782.53;;;25.52;32.68
50684;BME280;36654;45.042;38.994;2023-05-19T12:12:50;100777.56;;;25.43;33.30
50684;BME280;36654;45.042;38.994;2023-05-19T12:15:20;100781.72;;;25.50;32.93
50684;BME280;36654;45.042;38.994;2023-05-19T12:17:59;100775.47;;;25.48;32.94
50684;BME280;36654;45.042;38.994;2023-05-19T12:20:26;100782.69;;;25.49;33.12
50684;BME280;36654;45.042;38.994;2023-05-19T12:22:54;100762.56;;;25.53;33.04
50684;BME280;36654;45.042;38.994;2023-05-19T12:25:20;100762.72;;;25.50;33.29
50684;BME280;36654;45.042;38.994;2023-05-19T12:27:46;100780.28;;;25.60;32.66
50684;BME280;36654;45.042;38.994;2023-05-19T12:30:14;100776.22;;;25.52;32.25
50684;BME280;36654;45.042;38.994;2023-05-19T12:32:39;100785.44;;;25.67;32.78
50684;BME280;36654;45.042;38.994;2023-05-19T12:35:05;100762.56;;;25.53;32.69
50684;BME280;36654;45.042;38.994;2023-05-19T12:37:32;100757.78;;;25.58;32.83
50684;BME280;36654;45.042;38.994;2023-05-19T12:40:00;100805.53;;;25.63;32.67
50684;BME280;36654;45.042;38.994;2023-05-19T12:42:26;100787.94;;;25.52;32.69
50684;BME280;36654;45.042;38.994;2023-05-19T12:44:57;100767.53;;;25.63;32.66
50684;BME280;36654;45.042;38.994;2023-05-19T12:47:29;100780.16;;;25.64;32.81
50684;BME280;36654;45.042;38.994;2023-05-19T12:50:05;100778.38;;;25.63;33.20
50684;BME280;36654;45.042;38.994;2023-05-19T12:52:41;100756.38;;;25.69;33.68
50684;BME280;36654;45.042;38.994;2023-05-19T12:55:08;100766.91;;;25.75;33.35
50684;BME280;36654;45.042;38.994;2023-05-19T12:57:35;100728.25;;;25.52;33.63
50684;BME280;36654;45.042;38.994;2023-05-19T13:00:03;100778.97;;;25.69;33.17
50684;BME280;36654;45.042;38.994;2023-05-19T13:02:34;100758.31;;;25.48;33.64